sensor_id;sensor_type;location;lat;lon;timestamp;pressure;altitude;pressure_sealevel;temperature;humidity
81816;BME280;71249;52.084;5.304;2023-08-12T00:00:05;101780.0;;;20.14;80.47
81816;BME280;71249;52.084;5.304;2023-08-12T00:01:43;101782.0;;;20.18;80.41
81816;BME280;71249;52.084;5.304;2023-08-12T00:03:19;101786.0;;;20.16;80.52
81816;BME280;71249;52.084;5.304;2023-08-12T00:04:55;101781.0;;;20.14;80.56
81816;BME280;71249;52.084;5.304;2023-08-12T00:08:07;101774.0;;;20.22;80.13
81816;BME280;71249;52.084;5.304;2023-08-12T00:09:43;101771.0;;;20.25;80.08
81816;BME280;71249;52.084;5.304;2023-08-12T00:11:19;101784.0;;;20.21;80.14
81816;BME280;71249;52.084;5.304;2023-08-12T00:14:31;101782.0;;;20.13;80.33
81816;BME280;71249;52.084;5.304;2023-08-12T00:16:08;101780.0;;;20.16;80.38
81816;BME280;71249;52.084;5.304;2023-08-12T00:17:44;101770.0;;;20.11;80.44
81816;BME280;71249;52.084;5.304;2023-08-12T00:20:56;101767.0;;;20.25;79.69
81816;BME280;71249;52.084;5.304;2023-08-12T00:22:32;101770.0;;;20.14;79.88
81816;BME280;71249;52.084;5.304;2023-08-12T00:24:08;101778.0;;;20.12;80.28
81816;BME280;71249;52.084;5.304;2023-08-12T00:27:20;101775.0;;;20.11;80.22
81816;BME280;71249;52.084;5.304;2023-08-12T00:28:56;101768.0;;;20.09;80.25
81816;BME280;71249;52.084;5.304;2023-08-12T00:30:33;101763.0;;;20.13;80.13
81816;BME280;71249;52.084;5.304;2023-08-12T00:32:09;101756.0;;;20.16;80.12
81816;BME280;71249;52.084;5.304;2023-08-12T00:35:22;101759.0;;;20.09;80.38
81816;BME280;71249;52.084;5.304;2023-08-12T00:36:59;101757.0;;;20.11;80.33
81816;BME280;71249;52.084;5.304;2023-08-12T00:38:35;101749.0;;;20.2;80.16
81816;BME280;71249;52.084;5.304;2023-08-12T00:41:49;101748.0;;;20.34;79.8
81816;BME280;71249;52.084;5.304;2023-08-12T00:43:25;101746.0;;;20.18;80.25
81816;BME280;71249;52.084;5.304;2023-08-12T00:45:02;101735.0;;;20.13;80.33
81816;BME280;71249;52.084;5.304;2023-08-12T00:48:17;101736.0;;;20.14;80.16
81816;BME280;71249;52.084;5.304;2023-08-12T00:49:53;101732.0;;;20.09;80.34
81816;BME280;71249;52.084;5.304;2023-08-12T00:51:30;101730.0;;;20.06;80.19
81816;BME280;71249;52.084;5.304;2023-08-12T00:53:06;101736.0;;;20.0;80.44
81816;BME280;71249;52.084;5.304;2023-08-12T00:56:21;101737.0;;;20.02;80.09
81816;BME280;71249;52.084;5.304;2023-08-12T00:57:57;101736.0;;;19.97;80.16
81816;BME280;71249;52.084;5.304;2023-08-12T00:59:35;101730.0;;;20.02;79.98
81816;BME280;71249;52.084;5.304;2023-08-12T01:02:48;101733.0;;;19.91;80.3
81816;BME280;71249;52.084;5.304;2023-08-12T01:04:25;101730.0;;;19.91;80.14
81816;BME280;71249;52.084;5.304;2023-08-12T01:06:01;101724.0;;;19.87;80.22
81816;BME280;71249;52.084;5.304;2023-08-12T01:07:38;101719.0;;;19.88;80.11
81816;BME280;71249;52.084;5.304;2023-08-12T01:10:57;101718.0;;;19.86;80.14
81816;BME280;71249;52.084;5.304;2023-08-12T01:12:43;101721.0;;;19.75;80.58
81816;BME280;71249;52.084;5.304;2023-08-12T01:14:25;101715.0;;;19.77;80.41
81816;BME280;71249;52.084;5.304;2023-08-12T01:16:05;101722.0;;;19.7;80.62
81816;BME280;71249;52.084;5.304;2023-08-12T01:19:26;101717.0;;;19.68;80.69
81816;BME280;71249;52.084;5.304;2023-08-12T01:21:10;101715.0;;;19.64;80.66
81816;BME280;71249;52.084;5.304;2023-08-12T01:22:56;101710.0;;;19.57;80.91
81816;BME280;71249;52.084;5.304;2023-08-12T01:24:34;101705.0;;;19.63;80.33
81816;BME280;71249;52.084;5.304;2023-08-12T01:27:47;101705.0;;;19.46;80.84
81816;BME280;71249;52.084;5.304;2023-08-12T01:29:23;101703.0;;;19.48;80.97
81816;BME280;71249;52.084;5.304;2023-08-12T01:31:06;101699.0;;;19.5;80.95
81816;BME280;71249;52.084;5.304;2023-08-12T01:33:08;101702.0;;;19.54;80.77
81816;BME280;71249;52.084;5.304;2023-08-12T01:36:30;101699.0;;;19.5;81.08
81816;BME280;71249;52.084;5.304;2023-08-12T01:38:09;101692.0;;;19.54;80.91
81816;BME280;71249;52.084;5.304;2023-08-12T01:39:48;101688.0;;;19.59;80.77
81816;BME280;71249;52.084;5.304;2023-08-12T01:41:25;101684.0;;;19.57;80.87
81816;BME280;71249;52.084;5.304;2023-08-12T01:44:39;101686.0;;;19.55;81.06
81816;BME280;71249;52.084;5.304;2023-08-12T01:46:15;101684.0;;;19.56;80.97
81816;BME280;71249;52.084;5.304;2023-08-12T01:47:51;101682.0;;;19.53;81.08
81816;BME280;71249;52.084;5.304;2023-08-12T01:49:27;101680.0;;;19.47;81.31
81816;BME280;71249;52.084;5.304;2023-08-12T01:52:40;101676.0;;;19.53;81.02
81816;BME280;71249;52.084;5.304;2023-08-12T01:54:16;101671.0;;;19.54;81.03
81816;BME280;71249;52.084;5.304;2023-08-12T01:55:52;101671.0;;;19.63;80.84
81816;BME280;71249;52.084;5.304;2023-08-12T01:59:04;101670.0;;;19.56;81.05
81816;BME280;71249;52.084;5.304;2023-08-12T02:00:40;101661.0;;;19.63;80.92
81816;BME280;71249;52.084;5.304;2023-08-12T02:02:16;101662.0;;;19.59;81.19
81816;BME280;71249;52.084;5.304;2023-08-12T02:05:29;101663.0;;;19.59;81.37
81816;BME280;71249;52.084;5.304;2023-08-12T02:07:05;101661.0;;;19.68;81.08
81816;BME280;71249;52.084;5.304;2023-08-12T02:08:41;101662.0;;;19.61;81.23
81816;BME280;71249;52.084;5.304;2023-08-12T02:11:52;101662.0;;;19.66;81.25
81816;BME280;71249;52.084;5.304;2023-08-12T02:13:29;101665.0;;;19.73;80.99
81816;BME280;71249;52.084;5.304;2023-08-12T02:15:06;101657.0;;;19.71;80.92
81816;BME280;71249;52.084;5.304;2023-08-12T02:16:42;101658.0;;;19.71;81.14
81816;BME280;71249;52.084;5.304;2023-08-12T02:19:55;101661.0;;;19.73;81.02
81816;BME280;71249;52.084;5.304;2023-08-12T02:21:31;101657.0;;;19.87;80.84
81816;BME280;71249;52.084;5.304;2023-08-12T02:23:07;101658.0;;;19.84;81.03
81816;BME280;71249;52.084;5.304;2023-08-12T02:26:19;101646.0;;;19.97;81.12
81816;BME280;71249;52.084;5.304;2023-08-12T02:27:56;101643.0;;;20.0;81.19
81816;BME280;71249;52.084;5.304;2023-08-12T02:29:32;101643.0;;;19.98;81.38
81816;BME280;71249;52.084;5.304;2023-08-12T02:32:44;101639.0;;;20.04;81.44
81816;BME280;71249;52.084;5.304;2023-08-12T02:34:21;101639.0;;;20.09;81.63
81816;BME280;71249;52.084;5.304;2023-08-12T02:35:57;101634.0;;;20.11;81.28
81816;BME280;71249;52.084;5.304;2023-08-12T02:39:09;101634.0;;;20.09;81.24
81816;BME280;71249;52.084;5.304;2023-08-12T02:40:47;101634.0;;;20.13;81.12
81816;BME280;71249;52.084;5.304;2023-08-12T02:42:23;101634.0;;;20.12;81.11
81816;BME280;71249;52.084;5.304;2023-08-12T02:43:59;101633.0;;;20.09;81.37
81816;BME280;71249;52.084;5.304;2023-08-12T02:47:11;101634.0;;;20.07;81.33
81816;BME280;71249;52.084;5.304;2023-08-12T02:48:47;101628.0;;;20.16;80.8
81816;BME280;71249;52.084;5.304;2023-08-12T02:50:24;101623.0;;;20.18;80.73
81816;BME280;71249;52.084;5.304;2023-08-12T02:53:36;101624.0;;;20.13;81.14
81816;BME280;71249;52.084;5.304;2023-08-12T02:55:12;101617.0;;;20.23;81.11
81816;BME280;71249;52.084;5.304;2023-08-12T02:56:49;101618.0;;;20.25;81.17
81816;BME280;71249;52.084;5.304;2023-08-12T03:00:03;101616.0;;;20.27;81.06
81816;BME280;71249;52.084;5.304;2023-08-12T03:01:41;101614.0;;;20.34;80.83
81816;BME280;71249;52.084;5.304;2023-08-12T03:03:17;101606.0;;;20.37;81.02
81816;BME280;71249;52.084;5.304;2023-08-12T03:04:53;101606.0;;;20.36;80.86
81816;BME280;71249;52.084;5.304;2023-08-12T03:08:06;101603.0;;;20.5;80.74
81816;BME280;71249;52.084;5.304;2023-08-12T03:09:42;101607.0;;;20.5;81.08
81816;BME280;71249;52.084;5.304;2023-08-12T03:11:18;101607.0;;;20.52;80.91
81816;BME280;71249;52.084;5.304;2023-08-12T03:14:31;101601.0;;;20.52;81.12
81816;BME280;71249;52.084;5.304;2023-08-12T03:16:11;101599.0;;;20.45;81.06
81816;BME280;71249;52.084;5.304;2023-08-12T03:17:47;101601.0;;;20.46;80.86
81816;BME280;71249;52.084;5.304;2023-08-12T03:20:59;101597.0;;;20.53;81.17
81816;BME280;71249;52.084;5.304;2023-08-12T03:22:36;101595.0;;;20.49;81.27
81816;BME280;71249;52.084;5.304;2023-08-12T03:24:13;101597.0;;;20.45;81.45
81816;BME280;71249;52.084;5.304;2023-08-12T03:25:49;101593.0;;;20.45;81.25
81816;BME280;71249;52.084;5.304;2023-08-12T03:29:01;101588.0;;;20.46;81.24
81816;BME280;71249;52.084;5.304;2023-08-12T03:30:37;101586.0;;;20.41;81.86
81816;BME280;71249;52.084;5.304;2023-08-12T03:32:13;101581.0;;;20.56;81.17
81816;BME280;71249;52.084;5.304;2023-08-12T03:35:25;101580.0;;;20.55;81.66
81816;BME280;71249;52.084;5.304;2023-08-12T03:37:03;101571.0;;;20.53;81.61
81816;BME280;71249;52.084;5.304;2023-08-12T03:38:39;101568.0;;;20.5;81.99
81816;BME280;71249;52.084;5.304;2023-08-12T03:41:51;101567.0;;;20.5;81.61
81816;BME280;71249;52.084;5.304;2023-08-12T03:43:27;101566.0;;;20.65;81.19
81816;BME280;71249;52.084;5.304;2023-08-12T03:45:04;101566.0;;;20.6;81.27
81816;BME280;71249;52.084;5.304;2023-08-12T03:46:40;101565.0;;;20.52;81.83
81816;BME280;71249;52.084;5.304;2023-08-12T03:49:53;101566.0;;;20.57;81.47
81816;BME280;71249;52.084;5.304;2023-08-12T03:51:29;101561.0;;;20.53;81.69
81816;BME280;71249;52.084;5.304;2023-08-12T03:53:06;101556.0;;;20.5;81.66
81816;BME280;71249;52.084;5.304;2023-08-12T03:56:18;101551.0;;;20.47;81.89
81816;BME280;71249;52.084;5.304;2023-08-12T03:57:54;101543.0;;;20.5;81.78
81816;BME280;71249;52.084;5.304;2023-08-12T03:59:30;101546.0;;;20.45;81.95
81816;BME280;71249;52.084;5.304;2023-08-12T04:02:42;101541.0;;;20.43;81.87
81816;BME280;71249;52.084;5.304;2023-08-12T04:04:18;101531.0;;;20.56;81.59
81816;BME280;71249;52.084;5.304;2023-08-12T04:05:54;101517.0;;;20.84;80.66
81816;BME280;71249;52.084;5.304;2023-08-12T04:09:07;101525.0;;;20.87;80.81
81816;BME280;71249;52.084;5.304;2023-08-12T04:10:45;101534.0;;;20.94;81.05
81816;BME280;71249;52.084;5.304;2023-08-12T04:12:21;101541.0;;;21.0;80.83
81816;BME280;71249;52.084;5.304;2023-08-12T04:13:57;101544.0;;;20.97;80.98
81816;BME280;71249;52.084;5.304;2023-08-12T04:17:09;101542.0;;;21.01;80.83
81816;BME280;71249;52.084;5.304;2023-08-12T04:18:45;101538.0;;;21.09;80.83
81816;BME280;71249;52.084;5.304;2023-08-12T04:20:21;101537.0;;;20.98;81.11
81816;BME280;71249;52.084;5.304;2023-08-12T04:23:33;101540.0;;;21.03;80.83
81816;BME280;71249;52.084;5.304;2023-08-12T04:25:10;101538.0;;;21.11;80.36
81816;BME280;71249;52.084;5.304;2023-08-12T04:26:46;101537.0;;;21.02;80.83
81816;BME280;71249;52.084;5.304;2023-08-12T04:29:58;101533.0;;;21.21;80.87
81816;BME280;71249;52.084;5.304;2023-08-12T04:31:34;101534.0;;;21.1;81.14
81816;BME280;71249;52.084;5.304;2023-08-12T04:33:11;101533.0;;;21.21;80.61
81816;BME280;71249;52.084;5.304;2023-08-12T04:34:48;101528.0;;;21.11;80.99
81816;BME280;71249;52.084;5.304;2023-08-12T04:38:00;101523.0;;;21.09;81.16
81816;BME280;71249;52.084;5.304;2023-08-12T04:39:37;101513.0;;;21.09;81.33
81816;BME280;71249;52.084;5.304;2023-08-12T04:41:14;101505.0;;;21.02;81.47
81816;BME280;71249;52.084;5.304;2023-08-12T04:44:26;101500.0;;;21.03;81.83
81816;BME280;71249;52.084;5.304;2023-08-12T04:46:02;101497.0;;;21.22;81.41
81816;BME280;71249;52.084;5.304;2023-08-12T04:47:38;101490.0;;;21.28;81.11
81816;BME280;71249;52.084;5.304;2023-08-12T04:50:50;101489.0;;;21.28;81.16
81816;BME280;71249;52.084;5.304;2023-08-12T04:52:26;101492.0;;;21.32;80.77
81816;BME280;71249;52.084;5.304;2023-08-12T04:54:03;101490.0;;;21.31;80.87
81816;BME280;71249;52.084;5.304;2023-08-12T04:55:38;101478.0;;;21.28;81.08
81816;BME280;71249;52.084;5.304;2023-08-12T04:58:51;101480.0;;;21.43;80.75
81816;BME280;71249;52.084;5.304;2023-08-12T05:00:27;101487.0;;;21.54;80.11
81816;BME280;71249;52.084;5.304;2023-08-12T05:02:03;101487.0;;;21.43;80.31
81816;BME280;71249;52.084;5.304;2023-08-12T05:05:15;101480.0;;;21.53;80.05
81816;BME280;71249;52.084;5.304;2023-08-12T05:06:51;101473.0;;;21.38;80.92
81816;BME280;71249;52.084;5.304;2023-08-12T05:08:27;101475.0;;;21.49;80.2
81816;BME280;71249;52.084;5.304;2023-08-12T05:11:41;101474.0;;;21.46;80.53
81816;BME280;71249;52.084;5.304;2023-08-12T05:13:17;101482.0;;;21.41;80.72
81816;BME280;71249;52.084;5.304;2023-08-12T05:14:53;101483.0;;;21.53;80.31
81816;BME280;71249;52.084;5.304;2023-08-12T05:18:06;101483.0;;;21.47;80.22
81816;BME280;71249;52.084;5.304;2023-08-12T05:19:42;101486.0;;;21.53;80.27
81816;BME280;71249;52.084;5.304;2023-08-12T05:21:18;101483.0;;;21.66;79.75
81816;BME280;71249;52.084;5.304;2023-08-12T05:22:54;101482.0;;;21.67;79.91
81816;BME280;71249;52.084;5.304;2023-08-12T05:26:06;101480.0;;;21.69;79.52
81816;BME280;71249;52.084;5.304;2023-08-12T05:27:43;101478.0;;;21.59;79.94
81816;BME280;71249;52.084;5.304;2023-08-12T05:29:19;101483.0;;;21.64;80.08
81816;BME280;71249;52.084;5.304;2023-08-12T05:32:31;101483.0;;;21.76;79.58
81816;BME280;71249;52.084;5.304;2023-08-12T05:34:07;101484.0;;;21.77;79.64
81816;BME280;71249;52.084;5.304;2023-08-12T05:35:47;101485.0;;;21.79;79.58
81816;BME280;71249;52.084;5.304;2023-08-12T05:38:59;101484.0;;;21.56;80.41
81816;BME280;71249;52.084;5.304;2023-08-12T05:40:35;101485.0;;;21.61;79.97
81816;BME280;71249;52.084;5.304;2023-08-12T05:42:11;101480.0;;;21.59;80.2
81816;BME280;71249;52.084;5.304;2023-08-12T05:43:48;101483.0;;;21.77;79.64
81816;BME280;71249;52.084;5.304;2023-08-12T05:47:01;101486.0;;;21.69;79.89
81816;BME280;71249;52.084;5.304;2023-08-12T05:48:37;101483.0;;;21.7;79.98
81816;BME280;71249;52.084;5.304;2023-08-12T05:50:13;101482.0;;;21.66;80.27
81816;BME280;71249;52.084;5.304;2023-08-12T05:53:25;101480.0;;;21.63;80.5
81816;BME280;71249;52.084;5.304;2023-08-12T05:55:02;101477.0;;;21.51;80.98
81816;BME280;71249;52.084;5.304;2023-08-12T05:56:37;101476.0;;;21.66;80.59
81816;BME280;71249;52.084;5.304;2023-08-12T05:59:50;101482.0;;;21.62;80.86
81816;BME280;71249;52.084;5.304;2023-08-12T06:01:26;101474.0;;;21.57;81.08
81816;BME280;71249;52.084;5.304;2023-08-12T06:03:02;101481.0;;;21.65;80.44
81816;BME280;71249;52.084;5.304;2023-08-12T06:06:14;101478.0;;;21.59;80.61
81816;BME280;71249;52.084;5.304;2023-08-12T06:07:50;101476.0;;;21.53;81.05
81816;BME280;71249;52.084;5.304;2023-08-12T06:09:26;101475.0;;;21.61;80.61
81816;BME280;71249;52.084;5.304;2023-08-12T06:11:02;101478.0;;;21.42;81.7
81816;BME280;71249;52.084;5.304;2023-08-12T06:14:14;101474.0;;;21.4;81.72
81816;BME280;71249;52.084;5.304;2023-08-12T06:15:51;101473.0;;;21.36;81.98
81816;BME280;71249;52.084;5.304;2023-08-12T06:17:27;101477.0;;;21.35;82.2
81816;BME280;71249;52.084;5.304;2023-08-12T06:20:39;101477.0;;;21.35;82.1
81816;BME280;71249;52.084;5.304;2023-08-12T06:22:16;101483.0;;;21.28;82.23
81816;BME280;71249;52.084;5.304;2023-08-12T06:23:52;101491.0;;;21.31;82.2
81816;BME280;71249;52.084;5.304;2023-08-12T06:27:05;101488.0;;;21.38;82.15
81816;BME280;71249;52.084;5.304;2023-08-12T06:28:41;101490.0;;;21.42;81.92
81816;BME280;71249;52.084;5.304;2023-08-12T06:30:18;101490.0;;;21.38;81.39
81816;BME280;71249;52.084;5.304;2023-08-12T06:31:54;101491.0;;;21.38;81.64
81816;BME280;71249;52.084;5.304;2023-08-12T06:35:07;101486.0;;;21.46;81.16
81816;BME280;71249;52.084;5.304;2023-08-12T06:36:43;101492.0;;;21.34;81.87
81816;BME280;71249;52.084;5.304;2023-08-12T06:38:19;101490.0;;;21.17;82.38
81816;BME280;71249;52.084;5.304;2023-08-12T06:41:31;101480.0;;;21.24;82.34
81816;BME280;71249;52.084;5.304;2023-08-12T06:43:07;101471.0;;;21.16;82.76
81816;BME280;71249;52.084;5.304;2023-08-12T06:44:44;101471.0;;;21.17;82.74
81816;BME280;71249;52.084;5.304;2023-08-12T06:47:57;101466.0;;;21.09;83.05
81816;BME280;71249;52.084;5.304;2023-08-12T06:49:33;101465.0;;;20.99;83.66
81816;BME280;71249;52.084;5.304;2023-08-12T06:51:09;101460.0;;;20.96;83.81
81816;BME280;71249;52.084;5.304;2023-08-12T06:54:21;101460.0;;;20.89;84.06
81816;BME280;71249;52.084;5.304;2023-08-12T06:55:57;101461.0;;;20.88;84.61
81816;BME280;71249;52.084;5.304;2023-08-12T06:57:33;101456.0;;;20.85;84.76
81816;BME280;71249;52.084;5.304;2023-08-12T06:59:09;101459.0;;;20.87;84.61
81816;BME280;71249;52.084;5.304;2023-08-12T07:02:22;101461.0;;;20.89;84.56
81816;BME280;71249;52.084;5.304;2023-08-12T07:03:58;101455.0;;;20.83;84.9
81816;BME280;71249;52.084;5.304;2023-08-12T07:05:34;101456.0;;;20.99;84.23
81816;BME280;71249;52.084;5.304;2023-08-12T07:08:46;101458.0;;;20.88;84.45
81816;BME280;71249;52.084;5.304;2023-08-12T07:10:22;101456.0;;;21.0;84.13
81816;BME280;71249;52.084;5.304;2023-08-12T07:11:58;101448.0;;;20.97;83.81
81816;BME280;71249;52.084;5.304;2023-08-12T07:15:11;101447.0;;;20.84;84.45
81816;BME280;71249;52.084;5.304;2023-08-12T07:16:47;101443.0;;;20.88;84.48
81816;BME280;71249;52.084;5.304;2023-08-12T07:18:23;101440.0;;;21.0;84.01
81816;BME280;71249;52.084;5.304;2023-08-12T07:19:59;101443.0;;;20.87;84.35
81816;BME280;71249;52.084;5.304;2023-08-12T07:23:10;101443.0;;;20.87;84.59
81816;BME280;71249;52.084;5.304;2023-08-12T07:24:47;101439.0;;;20.81;84.86
81816;BME280;71249;52.084;5.304;2023-08-12T07:26:23;101441.0;;;20.9;84.53
81816;BME280;71249;52.084;5.304;2023-08-12T07:29:36;101438.0;;;20.87;84.56
81816;BME280;71249;52.084;5.304;2023-08-12T07:31:12;101436.0;;;20.89;84.61
81816;BME280;71249;52.084;5.304;2023-08-12T07:32:48;101436.0;;;20.86;84.72
81816;BME280;71249;52.084;5.304;2023-08-12T07:36:01;101433.0;;;20.9;84.7
81816;BME280;71249;52.084;5.304;2023-08-12T07:37:37;101433.0;;;20.92;84.42
81816;BME280;71249;52.084;5.304;2023-08-12T07:39:13;101428.0;;;21.0;84.14
81816;BME280;71249;52.084;5.304;2023-08-12T07:42:26;101428.0;;;20.94;84.37
81816;BME280;71249;52.084;5.304;2023-08-12T07:44:03;101430.0;;;20.83;84.98
81816;BME280;71249;52.084;5.304;2023-08-12T07:45:40;101431.0;;;20.88;85.12
81816;BME280;71249;52.084;5.304;2023-08-12T07:47:16;101428.0;;;20.96;84.95
81816;BME280;71249;52.084;5.304;2023-08-12T07:50:29;101433.0;;;20.91;84.93
81816;BME280;71249;52.084;5.304;2023-08-12T07:52:05;101433.0;;;20.97;84.82
81816;BME280;71249;52.084;5.304;2023-08-12T07:53:41;101430.0;;;20.94;83.64
81816;BME280;71249;52.084;5.304;2023-08-12T07:56:54;101433.0;;;21.02;83.93
81816;BME280;71249;52.084;5.304;2023-08-12T07:58:30;101435.0;;;21.08;83.35
81816;BME280;71249;52.084;5.304;2023-08-12T08:00:08;101439.0;;;21.01;83.95
81816;BME280;71249;52.084;5.304;2023-08-12T08:03:20;101438.0;;;21.03;84.03
81816;BME280;71249;52.084;5.304;2023-08-12T08:04:56;101437.0;;;21.0;84.24
81816;BME280;71249;52.084;5.304;2023-08-12T08:06:32;101432.0;;;21.06;83.6
81816;BME280;71249;52.084;5.304;2023-08-12T08:08:08;101430.0;;;21.23;83.34
81816;BME280;71249;52.084;5.304;2023-08-12T08:11:20;101433.0;;;21.21;83.54
81816;BME280;71249;52.084;5.304;2023-08-12T08:12:56;101425.0;;;21.07;84.46
81816;BME280;71249;52.084;5.304;2023-08-12T08:14:32;101430.0;;;21.06;84.98
81816;BME280;71249;52.084;5.304;2023-08-12T08:17:45;101428.0;;;21.16;84.73
81816;BME280;71249;52.084;5.304;2023-08-12T08:19:21;101431.0;;;21.15;84.44
81816;BME280;71249;52.084;5.304;2023-08-12T08:20:57;101428.0;;;21.4;83.58
81816;BME280;71249;52.084;5.304;2023-08-12T08:24:09;101431.0;;;21.37;82.94
81816;BME280;71249;52.084;5.304;2023-08-12T08:25:45;101432.0;;;21.25;82.97
81816;BME280;71249;52.084;5.304;2023-08-12T08:27:21;101428.0;;;21.49;82.57
81816;BME280;71249;52.084;5.304;2023-08-12T08:30:33;101427.0;;;21.48;82.56
81816;BME280;71249;52.084;5.304;2023-08-12T08:32:09;101433.0;;;21.39;83.07
81816;BME280;71249;52.084;5.304;2023-08-12T08:33:45;101440.0;;;21.3;83.76
81816;BME280;71249;52.084;5.304;2023-08-12T08:35:22;101442.0;;;21.37;83.07
81816;BME280;71249;52.084;5.304;2023-08-12T08:38:34;101446.0;;;21.39;83.12
81816;BME280;71249;52.084;5.304;2023-08-12T08:40:12;101448.0;;;21.39;82.76
81816;BME280;71249;52.084;5.304;2023-08-12T08:41:48;101447.0;;;21.47;82.94
81816;BME280;71249;52.084;5.304;2023-08-12T08:45:07;101449.0;;;21.44;83.4
81816;BME280;71249;52.084;5.304;2023-08-12T08:46:49;101449.0;;;21.4;83.67
81816;BME280;71249;52.084;5.304;2023-08-12T08:48:28;101451.0;;;21.47;83.02
81816;BME280;71249;52.084;5.304;2023-08-12T08:50:06;101452.0;;;21.38;82.47
81816;BME280;71249;52.084;5.304;2023-08-12T08:53:21;101466.0;;;21.45;82.48
81816;BME280;71249;52.084;5.304;2023-08-12T08:54:58;101476.0;;;21.43;82.28
81816;BME280;71249;52.084;5.304;2023-08-12T08:56:37;101488.0;;;21.26;81.11
81816;BME280;71249;52.084;5.304;2023-08-12T08:59:49;101496.0;;;21.14;79.94
81816;BME280;71249;52.084;5.304;2023-08-12T09:01:26;101506.0;;;20.99;79.02
81816;BME280;71249;52.084;5.304;2023-08-12T09:03:05;101502.0;;;20.87;80.11
81816;BME280;71249;52.084;5.304;2023-08-12T09:04:42;101503.0;;;20.67;80.58
81816;BME280;71249;52.084;5.304;2023-08-12T09:07:55;101496.0;;;20.75;79.64
81816;BME280;71249;52.084;5.304;2023-08-12T09:09:32;101496.0;;;20.5;79.22
81816;BME280;71249;52.084;5.304;2023-08-12T09:11:10;101497.0;;;20.2;78.92
81816;BME280;71249;52.084;5.304;2023-08-12T09:14:24;101499.0;;;20.32;79.52
81816;BME280;71249;52.084;5.304;2023-08-12T09:16:00;101489.0;;;20.25;81.2
81816;BME280;71249;52.084;5.304;2023-08-12T09:17:37;101485.0;;;20.22;80.83
81816;BME280;71249;52.084;5.304;2023-08-12T09:19:14;101474.0;;;20.21;81.02
81816;BME280;71249;52.084;5.304;2023-08-12T09:22:26;101478.0;;;20.11;81.36
81816;BME280;71249;52.084;5.304;2023-08-12T09:24:04;101480.0;;;20.02;80.56
81816;BME280;71249;52.084;5.304;2023-08-12T09:25:41;101484.0;;;20.05;81.83
81816;BME280;71249;52.084;5.304;2023-08-12T09:28:54;101490.0;;;20.04;81.69
81816;BME280;71249;52.084;5.304;2023-08-12T09:30:30;101495.0;;;20.07;81.67
81816;BME280;71249;52.084;5.304;2023-08-12T09:32:09;101498.0;;;20.07;80.88
81816;BME280;71249;52.084;5.304;2023-08-12T09:35:23;101505.0;;;20.02;80.99
81816;BME280;71249;52.084;5.304;2023-08-12T09:36:59;101500.0;;;19.98;80.56
81816;BME280;71249;52.084;5.304;2023-08-12T09:38:35;101507.0;;;19.93;81.52
81816;BME280;71249;52.084;5.304;2023-08-12T09:40:11;101520.0;;;19.87;81.7
81816;BME280;71249;52.084;5.304;2023-08-12T09:43:28;101519.0;;;20.0;82.07
81816;BME280;71249;52.084;5.304;2023-08-12T09:45:06;101512.0;;;20.04;81.72
81816;BME280;71249;52.084;5.304;2023-08-12T09:46:42;101512.0;;;20.22;81.86
81816;BME280;71249;52.084;5.304;2023-08-12T09:49:54;101519.0;;;20.25;83.33
81816;BME280;71249;52.084;5.304;2023-08-12T09:51:34;101522.0;;;20.36;83.09
81816;BME280;71249;52.084;5.304;2023-08-12T09:53:11;101519.0;;;20.37;81.84
81816;BME280;71249;52.084;5.304;2023-08-12T09:54:48;101526.0;;;20.55;81.23
81816;BME280;71249;52.084;5.304;2023-08-12T09:58:10;101526.0;;;20.43;80.91
81816;BME280;71249;52.084;5.304;2023-08-12T09:59:46;101533.0;;;20.47;81.19
81816;BME280;71249;52.084;5.304;2023-08-12T10:01:24;101537.0;;;20.64;81.22
81816;BME280;71249;52.084;5.304;2023-08-12T10:04:39;101533.0;;;20.56;80.63
81816;BME280;71249;52.084;5.304;2023-08-12T10:06:18;101528.0;;;20.64;81.5
81816;BME280;71249;52.084;5.304;2023-08-12T10:15:59;101511.0;;;21.0;80.39
81816;BME280;71249;52.084;5.304;2023-08-12T10:19:16;101517.0;;;21.12;80.55
81816;BME280;71249;52.084;5.304;2023-08-12T10:20:53;101520.0;;;21.17;77.89
81816;BME280;71249;52.084;5.304;2023-08-12T10:22:32;101518.0;;;21.17;77.77
81816;BME280;71249;52.084;5.304;2023-08-12T10:24:10;101519.0;;;21.05;76.69
81816;BME280;71249;52.084;5.304;2023-08-12T10:27:25;101517.0;;;21.31;77.42
81816;BME280;71249;52.084;5.304;2023-08-12T10:29:02;101522.0;;;21.44;78.49
81816;BME280;71249;52.084;5.304;2023-08-12T10:30:40;101522.0;;;21.59;79.45
81816;BME280;71249;52.084;5.304;2023-08-12T10:33:52;101511.0;;;21.74;78.97
81816;BME280;71249;52.084;5.304;2023-08-12T10:35:41;101523.0;;;21.68;75.06
81816;BME280;71249;52.084;5.304;2023-08-12T10:37:18;101517.0;;;21.86;76.95
81816;BME280;71249;52.084;5.304;2023-08-12T10:38:53;101519.0;;;21.96;77.14
81816;BME280;71249;52.084;5.304;2023-08-12T10:42:08;101516.0;;;22.06;75.91
81816;BME280;71249;52.084;5.304;2023-08-12T10:43:52;101524.0;;;22.08;77.02
81816;BME280;71249;52.084;5.304;2023-08-12T10:45:41;101525.0;;;22.12;78.19
81816;BME280;71249;52.084;5.304;2023-08-12T10:47:18;101521.0;;;22.14;76.3
81816;BME280;71249;52.084;5.304;2023-08-12T10:50:43;101517.0;;;22.35;76.33
81816;BME280;71249;52.084;5.304;2023-08-12T10:52:28;101515.0;;;22.59;76.3
81816;BME280;71249;52.084;5.304;2023-08-12T10:54:13;101521.0;;;22.58;75.31
81816;BME280;71249;52.084;5.304;2023-08-12T10:55:50;101515.0;;;22.59;72.95
81816;BME280;71249;52.084;5.304;2023-08-12T10:59:48;101517.0;;;22.68;72.91
81816;BME280;71249;52.084;5.304;2023-08-12T11:01:24;101515.0;;;22.88;73.3
81816;BME280;71249;52.084;5.304;2023-08-12T11:03:00;101519.0;;;22.86;72.44
81816;BME280;71249;52.084;5.304;2023-08-12T11:04:42;101514.0;;;22.86;70.45
81816;BME280;71249;52.084;5.304;2023-08-12T11:06:19;101518.0;;;22.96;72.39
81816;BME280;71249;52.084;5.304;2023-08-12T11:09:34;101517.0;;;23.0;73.73
81816;BME280;71249;52.084;5.304;2023-08-12T11:11:19;101512.0;;;22.96;68.45
81816;BME280;71249;52.084;5.304;2023-08-12T11:12:57;101514.0;;;23.04;68.02